createdAt,value
2022-11-17T00:00:18.425Z,0.50
2022-11-17T00:02:45.599Z,0.60
2022-11-17T00:05:12.151Z,0.63
2022-11-17T00:07:38.835Z,0.50
2022-11-17T00:10:08.529Z,0.43
2022-11-17T00:12:56.938Z,0.32
2022-11-17T00:15:23.545Z,0.40
2022-11-17T00:18:10.080Z,0.30
2022-11-17T00:21:00.876Z,0.50
2022-11-17T00:23:46.999Z,0.60
2022-11-17T00:26:18.974Z,0.40
2022-11-17T00:28:45.888Z,0.45
2022-11-17T00:31:32.709Z,0.30
2022-11-17T00:34:09.123Z,1.10
2022-11-17T00:36:43.584Z,0.30
2022-11-17T00:39:11.207Z,0.38
2022-11-17T00:41:40.600Z,0.30
2022-11-17T00:44:10.594Z,0.30
2022-11-17T00:46:43.693Z,0.30
2022-11-17T00:49:11.527Z,0.60
2022-11-17T00:51:41.229Z,0.43
2022-11-17T00:54:13.367Z,0.95
2022-11-17T00:56:40.484Z,0.60
2022-11-17T00:59:10.177Z,0.60
2022-11-17T01:01:40.832Z,0.50
2022-11-17T01:04:10.325Z,1.02
2022-11-17T01:06:41.731Z,0.80
2022-11-17T01:09:23.036Z,0.98
2022-11-17T01:11:51.938Z,0.73
2022-11-17T01:14:23.759Z,0.70
2022-11-17T01:16:50.972Z,0.73
2022-11-17T01:19:19.152Z,1.00
2022-11-17T01:21:46.832Z,0.70
2022-11-17T01:24:16.121Z,0.93
2022-11-17T01:26:44.367Z,0.80
2022-11-17T01:29:17.112Z,0.93
2022-11-17T01:31:44.920Z,0.90
2022-11-17T01:34:12.241Z,1.08
2022-11-17T01:37:00.685Z,1.08
2022-11-17T01:39:29.218Z,1.30
2022-11-17T01:41:56.806Z,1.40
2022-11-17T01:44:41.821Z,1.92
2022-11-17T01:47:18.718Z,1.50
2022-11-17T01:49:45.813Z,1.75
2022-11-17T01:52:13.637Z,1.73
2022-11-17T01:54:43.835Z,1.48
2022-11-17T01:57:25.888Z,1.63
2022-11-17T01:59:59.248Z,1.77
2022-11-17T02:02:26.157Z,1.40
2022-11-17T02:05:48.224Z,1.33
2022-11-17T02:08:15.443Z,1.90
2022-11-17T02:10:51.303Z,2.08
2022-11-17T02:13:20.412Z,1.95
2022-11-17T02:15:47.047Z,2.13
2022-11-17T02:18:15.209Z,2.00
2022-11-17T02:20:51.412Z,1.70
2022-11-17T02:23:37.976Z,1.88
2022-11-17T02:26:07.454Z,2.25
2022-11-17T02:29:00.025Z,1.70
2022-11-17T02:32:03.049Z,1.80
2022-11-17T02:34:58.707Z,2.17
2022-11-17T02:37:52.414Z,1.65
2022-11-17T02:40:24.843Z,1.73
2022-11-17T02:43:17.663Z,2.38
2022-11-17T02:45:48.618Z,2.28
2022-11-17T02:48:22.318Z,1.70
2022-11-17T02:50:49.785Z,2.17
2022-11-17T02:53:16.716Z,1.92
2022-11-17T02:55:50.363Z,1.73
2022-11-17T02:58:16.888Z,1.92
2022-11-17T03:01:06.617Z,2.00
2022-11-17T03:03:54.718Z,1.85
2022-11-17T03:06:24.184Z,1.83
2022-11-17T03:09:06.217Z,1.80
2022-11-17T03:11:52.521Z,1.40
2022-11-17T03:14:52.095Z,1.65
2022-11-17T03:17:30.501Z,2.05
2022-11-17T03:20:16.693Z,2.30
2022-11-17T03:22:48.692Z,2.40
2022-11-17T03:25:23.164Z,2.08
2022-11-17T03:27:55.676Z,1.80
2022-11-17T03:30:24.476Z,1.70
2022-11-17T03:32:56.902Z,1.45
2022-11-17T03:35:27.498Z,2.05
2022-11-17T03:37:59.023Z,1.70
2022-11-17T03:40:29.333Z,1.90
2022-11-17T03:42:59.835Z,2.05
2022-11-17T03:45:34.037Z,2.35
2022-11-17T03:48:23.429Z,1.30
2022-11-17T03:51:04.637Z,2.10
2022-11-17T03:53:32.102Z,2.72
2022-11-17T03:56:36.465Z,2.33
2022-11-17T03:59:18.494Z,2.22
2022-11-17T04:01:45.103Z,1.95
2022-11-17T04:04:20.062Z,2.08
2022-11-17T04:06:48.684Z,1.77
2022-11-17T04:09:17.673Z,1.98
2022-11-17T04:12:09.672Z,1.85
2022-11-17T04:14:54.410Z,1.42
2022-11-17T04:17:21.287Z,2.78
2022-11-17T04:19:49.645Z,2.03
2022-11-17T04:22:16.119Z,2.20
2022-11-17T04:24:42.598Z,2.70
2022-11-17T04:27:27.948Z,2.47
2022-11-17T04:29:54.488Z,2.10
2022-11-17T04:32:20.982Z,1.65
2022-11-17T04:34:50.549Z,2.45
2022-11-17T04:37:23.332Z,1.67
2022-11-17T04:39:52.290Z,1.55
2022-11-17T04:42:21.537Z,2.10
2022-11-17T04:44:48.038Z,2.35
2022-11-17T04:47:14.748Z,1.63
2022-11-17T04:49:41.339Z,2.13
2022-11-17T04:52:08.001Z,2.10
2022-11-17T04:54:34.916Z,1.77
2022-11-17T04:57:01.445Z,1.80
2022-11-17T04:59:28.070Z,2.08
2022-11-17T05:01:54.595Z,2.78
2022-11-17T05:04:40.779Z,1.73
2022-11-17T05:07:08.661Z,2.35
2022-11-17T05:09:35.314Z,2.20
2022-11-17T05:12:22.525Z,1.80
2022-11-17T05:14:52.887Z,3.25
2022-11-17T05:17:19.417Z,3.05
2022-11-17T05:19:48.360Z,2.53
2022-11-17T05:22:38.784Z,1.98
2022-11-17T05:25:06.395Z,2.60
2022-11-17T05:27:34.090Z,2.15
2022-11-17T05:30:01.654Z,2.42
2022-11-17T05:32:28.193Z,1.92
2022-11-17T05:34:54.761Z,2.70
2022-11-17T05:37:21.970Z,1.75
2022-11-17T05:39:48.452Z,2.72
2022-11-17T05:42:15.056Z,1.88
2022-11-17T05:44:41.570Z,2.38
2022-11-17T05:47:08.070Z,2.50
2022-11-17T05:49:34.579Z,2.45
2022-11-17T05:52:01.062Z,2.33
2022-11-17T05:54:27.707Z,2.53
2022-11-17T05:57:06.991Z,1.90
2022-11-17T05:59:45.297Z,2.47
2022-11-17T06:02:17.488Z,2.17
2022-11-17T06:04:44.291Z,1.50
2022-11-17T06:07:11.165Z,2.55
2022-11-17T06:09:41.462Z,2.20
2022-11-17T06:12:08.573Z,1.95
2022-11-17T06:14:35.684Z,3.03
2022-11-17T06:17:07.626Z,2.00
2022-11-17T06:19:39.981Z,2.75
2022-11-17T06:22:12.599Z,2.65
2022-11-17T06:24:44.648Z,1.67
2022-11-17T06:27:14.159Z,1.92
2022-11-17T06:29:44.620Z,1.92
2022-11-17T06:32:14.673Z,2.20
2022-11-17T06:34:47.004Z,2.15
2022-11-17T06:37:17.733Z,2.05
2022-11-17T06:39:44.908Z,3.00
2022-11-17T06:42:12.110Z,2.85
2022-11-17T06:44:39.289Z,2.25
2022-11-17T06:47:06.054Z,1.98
2022-11-17T06:49:32.553Z,1.83
2022-11-17T06:51:59.071Z,1.80
2022-11-17T06:54:27.856Z,2.55
2022-11-17T06:56:57.558Z,2.00
2022-11-17T06:59:24.131Z,3.13
2022-11-17T07:01:50.692Z,2.60
2022-11-17T07:04:17.459Z,2.53
2022-11-17T07:06:44.010Z,1.65
2022-11-17T07:09:10.535Z,2.95
2022-11-17T07:11:37.185Z,1.95
2022-11-17T07:14:03.868Z,2.20
2022-11-17T07:16:31.112Z,2.47
2022-11-17T07:18:59.538Z,2.47
2022-11-17T07:21:26.361Z,1.95
2022-11-17T07:23:52.932Z,1.80
2022-11-17T07:26:19.506Z,2.35
2022-11-17T07:28:46.036Z,2.05
2022-11-17T07:31:12.604Z,2.17
2022-11-17T07:33:41.117Z,1.85
2022-11-17T07:36:10.752Z,2.58
2022-11-17T07:38:39.079Z,2.22
2022-11-17T07:41:07.015Z,2.85
2022-11-17T07:43:34.967Z,1.67
2022-11-17T07:46:06.673Z,2.78
2022-11-17T07:48:35.263Z,1.65
2022-11-17T07:51:03.975Z,1.58
2022-11-17T07:53:35.288Z,2.20
2022-11-17T07:56:05.888Z,1.60
2022-11-17T07:58:33.569Z,2.50
2022-11-17T08:01:12.899Z,1.52
2022-11-17T08:03:39.826Z,2.20
2022-11-17T08:06:08.441Z,1.80
2022-11-17T08:08:36.269Z,2.55
2022-11-17T08:11:07.969Z,2.03
2022-11-17T08:13:35.688Z,2.05
2022-11-17T08:16:07.184Z,1.83
2022-11-17T08:18:35.315Z,1.73
2022-11-17T08:21:07.505Z,2.05
2022-11-17T08:23:34.522Z,2.83
2022-11-17T08:26:06.025Z,2.45
2022-11-17T08:28:36.605Z,2.13
2022-11-17T08:31:05.205Z,1.73
2022-11-17T08:33:34.444Z,2.30
2022-11-17T08:36:04.091Z,2.30
2022-11-17T08:38:31.347Z,2.22
2022-11-17T08:40:59.269Z,2.08
2022-11-17T08:43:25.858Z,2.33
2022-11-17T08:45:52.637Z,2.35
2022-11-17T08:48:19.508Z,2.75
2022-11-17T08:50:46.407Z,1.88
2022-11-17T08:53:15.098Z,2.28
2022-11-17T08:55:42.390Z,2.80
2022-11-17T08:58:10.146Z,1.90
2022-11-17T09:00:36.695Z,1.88
2022-11-17T09:03:07.543Z,2.60
2022-11-17T09:05:38.584Z,1.92
2022-11-17T09:08:22.911Z,2.40
2022-11-17T09:10:52.058Z,2.05
2022-11-17T09:13:18.966Z,2.00
2022-11-17T09:15:45.561Z,1.63
2022-11-17T09:18:12.177Z,1.75
2022-11-17T09:20:44.246Z,1.92
2022-11-17T09:23:12.150Z,1.73
2022-11-17T09:25:38.644Z,1.52
2022-11-17T09:28:05.202Z,2.33
2022-11-17T09:30:34.907Z,1.77
2022-11-17T09:33:05.305Z,2.25
2022-11-17T09:35:36.046Z,1.95
2022-11-17T09:38:06.286Z,1.27
2022-11-17T09:40:38.642Z,1.40
2022-11-17T09:43:25.125Z,1.65
2022-11-17T09:45:55.974Z,1.58
2022-11-17T09:48:48.530Z,1.20
2022-11-17T09:51:20.392Z,1.70
2022-11-17T09:53:57.467Z,1.80
2022-11-17T09:59:27.513Z,3.03
2022-11-17T10:01:54.155Z,5.35
2022-11-17T10:04:20.737Z,5.85
2022-11-17T10:06:50.772Z,4.10
2022-11-17T10:09:28.466Z,4.00
2022-11-17T10:12:07.594Z,4.07
2022-11-17T10:14:41.879Z,4.00
2022-11-17T10:17:15.338Z,4.18
2022-11-17T10:19:48.888Z,3.17
2022-11-17T10:22:42.100Z,4.15
2022-11-17T10:25:38.289Z,4.00
2022-11-17T10:28:23.176Z,5.43
2022-11-17T10:31:13.501Z,3.90
2022-11-17T10:33:51.234Z,4.65
2022-11-17T10:36:27.463Z,4.05
2022-11-17T10:38:58.203Z,3.85
2022-11-17T10:41:41.640Z,4.43
2022-11-17T10:44:44.799Z,4.47
2022-11-17T10:47:25.267Z,5.18
2022-11-17T10:50:11.933Z,4.22
2022-11-17T10:52:38.543Z,4.93
2022-11-17T10:55:23.140Z,2.92
2022-11-17T10:58:27.004Z,3.72
2022-11-17T11:01:03.545Z,2.58
2022-11-17T11:03:35.756Z,1.92
2022-11-17T11:06:23.601Z,1.80
2022-11-17T11:09:16.662Z,2.38
2022-11-17T11:11:46.967Z,2.90
2022-11-17T11:14:48.960Z,2.47
2022-11-17T11:17:17.539Z,2.70
2022-11-17T11:19:51.581Z,3.13
2022-11-17T11:22:24.080Z,1.85
2022-11-17T11:25:10.069Z,1.92
2022-11-17T11:27:57.321Z,2.15
2022-11-17T11:30:23.977Z,2.20
2022-11-17T11:33:07.735Z,1.80
2022-11-17T11:35:49.340Z,1.73
2022-11-17T11:38:40.695Z,2.10
2022-11-17T11:41:33.578Z,1.88
2022-11-17T11:44:00.092Z,1.40
2022-11-17T11:47:08.137Z,1.75
2022-11-17T11:49:55.559Z,1.20
2022-11-17T11:52:27.345Z,1.45
2022-11-17T11:54:56.196Z,2.38
2022-11-17T11:57:33.834Z,1.42
2022-11-17T12:00:07.099Z,1.85
2022-11-17T12:02:55.785Z,1.67
2022-11-17T12:05:34.754Z,1.98
2022-11-17T12:08:10.176Z,1.75
2022-11-17T12:10:53.886Z,1.70
2022-11-17T12:13:23.974Z,1.15
2022-11-17T12:15:54.026Z,1.48
2022-11-17T12:18:20.546Z,1.50
2022-11-17T12:21:11.796Z,1.40
2022-11-17T12:23:46.993Z,1.98
2022-11-17T12:26:28.068Z,1.65
2022-11-17T12:29:19.393Z,1.38
2022-11-17T12:31:55.975Z,1.40
2022-11-17T12:34:35.451Z,1.50
2022-11-17T12:37:14.709Z,1.48
2022-11-17T12:40:04.143Z,1.98
2022-11-17T12:42:33.764Z,1.38
2022-11-17T12:45:04.924Z,1.10
2022-11-17T12:47:38.019Z,0.77
2022-11-17T12:50:19.722Z,0.68
2022-11-17T12:53:04.573Z,1.30
2022-11-17T12:55:48.980Z,0.85
2022-11-17T12:58:28.494Z,1.02
2022-11-17T13:01:17.587Z,0.43
2022-11-17T13:03:54.997Z,0.93
2022-11-17T13:06:35.356Z,0.70
2022-11-17T13:09:12.949Z,0.80
2022-11-17T13:11:39.686Z,0.73
2022-11-17T13:14:11.630Z,0.70
2022-11-17T13:16:48.463Z,0.88
2022-11-17T13:19:41.419Z,0.90
2022-11-17T13:22:11.066Z,0.50
2022-11-17T13:24:40.773Z,0.90
2022-11-17T13:27:27.171Z,0.70
2022-11-17T13:30:27.747Z,0.75
2022-11-17T13:32:56.286Z,1.38
2022-11-17T13:35:35.454Z,0.90
2022-11-17T13:38:22.726Z,0.88
2022-11-17T13:40:51.552Z,0.85
2022-11-17T13:43:20.699Z,1.83
2022-11-17T13:45:49.387Z,1.02
2022-11-17T13:48:42.060Z,0.70
2022-11-17T13:51:38.768Z,0.70
2022-11-17T13:54:11.624Z,0.70
2022-11-17T13:56:47.530Z,0.95
2022-11-17T13:59:28.601Z,0.60
2022-11-17T14:02:16.569Z,0.73
2022-11-17T14:05:14.453Z,0.73
2022-11-17T14:07:42.885Z,1.20
2022-11-17T14:10:21.431Z,0.52
2022-11-17T14:12:49.670Z,0.50
2022-11-17T14:15:28.590Z,0.60
2022-11-17T14:17:59.944Z,1.20
2022-11-17T14:20:35.949Z,0.80
2022-11-17T14:23:06.294Z,0.70
2022-11-17T14:25:40.250Z,1.35
2022-11-17T14:28:18.152Z,0.95
2022-11-17T14:30:48.850Z,1.08
2022-11-17T14:33:15.349Z,1.58
2022-11-17T14:35:42.891Z,0.80
2022-11-17T14:38:18.799Z,1.05
2022-11-17T14:40:45.582Z,0.82
2022-11-17T14:43:12.091Z,0.70
2022-11-17T14:45:38.678Z,0.95
2022-11-17T14:48:08.063Z,0.43
2022-11-17T14:50:35.774Z,0.57
2022-11-17T14:53:02.309Z,1.08
2022-11-17T14:55:28.825Z,1.45
2022-11-17T14:57:55.917Z,0.60
2022-11-17T15:00:22.506Z,0.60
2022-11-17T15:02:49.457Z,0.65
2022-11-17T15:05:16.550Z,0.63
2022-11-17T15:07:44.013Z,0.80
2022-11-17T15:10:11.823Z,0.50
2022-11-17T15:12:39.073Z,0.50
2022-11-17T15:15:07.686Z,0.90
2022-11-17T15:17:36.787Z,1.13
2022-11-17T15:20:06.393Z,1.17
2022-11-17T15:22:32.906Z,0.80
2022-11-17T15:24:59.613Z,0.65
2022-11-17T15:27:26.151Z,1.23
2022-11-17T15:29:52.683Z,12.27
2022-11-17T15:32:19.214Z,3.65
2022-11-17T15:34:46.096Z,1.55
2022-11-17T15:37:12.603Z,1.20
2022-11-17T15:39:39.093Z,1.00
2022-11-17T15:42:06.753Z,0.98
2022-11-17T15:44:35.811Z,0.93
2022-11-17T15:47:02.310Z,0.55
2022-11-17T15:49:28.836Z,2.05
2022-11-17T15:51:55.408Z,0.60
2022-11-17T15:54:23.428Z,0.88
2022-11-17T15:56:52.513Z,1.00
2022-11-17T15:59:19.600Z,0.60
2022-11-17T16:01:46.685Z,0.93
2022-11-17T16:04:15.967Z,0.63
2022-11-17T16:06:44.471Z,0.68
2022-11-17T16:09:12.061Z,0.60
2022-11-17T16:11:39.537Z,0.88
2022-11-17T16:14:07.046Z,1.08
2022-11-17T16:16:38.335Z,0.70
2022-11-17T16:19:07.881Z,1.10
2022-11-17T16:21:38.000Z,0.70
2022-11-17T16:24:08.364Z,0.70
2022-11-17T16:26:38.098Z,0.82
2022-11-17T16:29:08.927Z,0.60
2022-11-17T16:31:37.751Z,1.63
2022-11-17T16:34:10.574Z,0.93
2022-11-17T16:36:39.290Z,0.98
2022-11-17T16:39:12.705Z,0.50
2022-11-17T16:41:40.901Z,0.52
2022-11-17T16:44:13.369Z,0.82
2022-11-17T16:46:45.713Z,0.90
2022-11-17T16:49:15.393Z,1.17
2022-11-17T16:51:47.858Z,0.98
2022-11-17T16:54:14.758Z,1.77
2022-11-17T16:56:43.637Z,0.70
2022-11-17T16:59:11.281Z,1.52
2022-11-17T17:01:39.433Z,0.88
2022-11-17T17:04:10.180Z,1.00
2022-11-17T17:06:40.674Z,0.73
2022-11-17T17:09:08.918Z,1.25
2022-11-17T17:11:39.098Z,1.83
2022-11-17T17:14:11.875Z,1.60
2022-11-17T17:16:38.625Z,3.90
2022-11-17T17:19:13.597Z,1.80
2022-11-17T17:21:42.533Z,1.75
2022-11-17T17:24:10.181Z,1.60
2022-11-17T17:26:39.207Z,2.08
2022-11-17T17:29:09.590Z,1.25
2022-11-17T17:31:41.399Z,1.10
2022-11-17T17:34:08.886Z,1.25
2022-11-17T17:36:39.046Z,0.95
2022-11-17T17:39:06.797Z,0.95
2022-11-17T17:41:38.504Z,1.02
2022-11-17T17:44:13.245Z,0.90
2022-11-17T17:46:39.814Z,0.90
2022-11-17T17:49:07.137Z,0.70
2022-11-17T17:51:37.862Z,0.68
2022-11-17T17:54:07.982Z,0.70
2022-11-17T17:56:36.722Z,0.50
2022-11-17T17:59:06.558Z,0.82
2022-11-17T18:01:34.868Z,0.80
2022-11-17T18:04:05.553Z,1.08
2022-11-17T18:06:42.125Z,0.57
2022-11-17T18:09:10.929Z,1.05
2022-11-17T18:11:37.571Z,0.80
2022-11-17T18:14:08.002Z,0.70
2022-11-17T18:16:35.607Z,0.93
2022-11-17T18:19:05.721Z,1.48
2022-11-17T18:21:32.623Z,0.70
2022-11-17T18:24:01.299Z,0.60
2022-11-17T18:26:31.214Z,0.90
2022-11-17T18:29:02.090Z,0.63
2022-11-17T18:31:30.887Z,0.75
2022-11-17T18:34:00.679Z,0.88
2022-11-17T18:36:29.249Z,0.60
2022-11-17T18:38:58.467Z,0.73
2022-11-17T18:41:26.620Z,0.38
2022-11-17T18:43:55.385Z,0.43
2022-11-17T18:46:24.098Z,1.02
2022-11-17T18:48:52.264Z,0.60
2022-11-17T18:51:21.646Z,0.68
2022-11-17T18:53:49.894Z,0.45
2022-11-17T18:56:20.608Z,0.75
2022-11-17T18:58:47.449Z,0.75
2022-11-17T19:01:19.918Z,0.45
2022-11-17T19:03:49.569Z,0.63
2022-11-17T19:06:18.283Z,0.90
2022-11-17T19:08:45.520Z,0.93
2022-11-17T19:11:12.441Z,0.63
2022-11-17T19:13:41.625Z,0.40
2022-11-17T19:16:23.840Z,0.50
2022-11-17T19:18:55.229Z,0.60
2022-11-17T19:21:28.627Z,0.70
2022-11-17T19:23:58.452Z,0.50
2022-11-17T19:26:46.379Z,0.77
2022-11-17T19:29:30.782Z,1.33
2022-11-17T19:31:57.463Z,0.73
2022-11-17T19:34:23.988Z,1.42
2022-11-17T19:36:50.523Z,0.45
2022-11-17T19:39:20.477Z,0.65
2022-11-17T19:41:47.734Z,0.98
2022-11-17T19:44:14.349Z,0.45
2022-11-17T19:46:40.918Z,0.68
2022-11-17T19:49:08.204Z,0.50
2022-11-17T19:51:37.554Z,0.80
2022-11-17T19:54:07.824Z,1.10
2022-11-17T19:56:38.379Z,0.70
2022-11-17T19:59:13.987Z,0.60
2022-11-17T20:01:42.516Z,0.40
2022-11-17T20:04:09.216Z,0.47
2022-11-17T20:06:39.531Z,0.50
2022-11-17T20:09:10.949Z,0.50
2022-11-17T20:11:37.882Z,0.55
2022-11-17T20:14:08.924Z,0.60
2022-11-17T20:16:39.950Z,0.38
2022-11-17T20:19:06.746Z,0.60
2022-11-17T20:21:38.190Z,0.40
2022-11-17T20:24:08.261Z,0.50
2022-11-17T20:26:40.673Z,0.55
2022-11-17T20:29:07.378Z,0.40
2022-11-17T20:31:37.843Z,0.30
2022-11-17T20:34:09.232Z,1.17
2022-11-17T20:36:38.778Z,0.35
2022-11-17T20:39:08.262Z,0.65
2022-11-17T20:41:38.477Z,0.45
2022-11-17T20:44:23.828Z,0.40
2022-11-17T20:46:55.033Z,0.45
2022-11-17T20:49:23.099Z,1.83
2022-11-17T20:51:50.135Z,0.55
2022-11-17T20:54:16.653Z,0.70
2022-11-17T20:56:43.471Z,0.60
2022-11-17T20:59:10.065Z,0.70
2022-11-17T21:01:39.247Z,0.98
2022-11-17T21:04:10.855Z,0.60
2022-11-17T21:06:37.723Z,0.70
2022-11-17T21:09:08.324Z,0.80
2022-11-17T21:11:56.571Z,0.77
2022-11-17T21:14:26.068Z,0.50
2022-11-17T21:16:54.539Z,1.13
2022-11-17T21:19:21.827Z,0.50
2022-11-17T21:21:51.783Z,0.50
2022-11-17T21:24:18.316Z,1.02
2022-11-17T21:26:45.522Z,0.70
2022-11-17T21:29:12.030Z,0.50
2022-11-17T21:31:38.560Z,0.63
2022-11-17T21:34:07.683Z,0.80
2022-11-17T21:36:39.099Z,0.60
2022-11-17T21:39:09.206Z,0.50
2022-11-17T21:41:38.977Z,0.40
2022-11-17T21:44:11.685Z,1.08
2022-11-17T21:46:38.171Z,0.60
2022-11-17T21:49:07.606Z,0.82
2022-11-17T21:51:38.305Z,0.70
2022-11-17T21:54:07.985Z,0.80
2022-11-17T21:56:37.087Z,0.40
2022-11-17T21:59:09.620Z,0.60
2022-11-17T22:01:39.691Z,0.47
2022-11-17T22:04:10.147Z,0.60
2022-11-17T22:06:39.594Z,0.80
2022-11-17T22:09:08.242Z,0.77
2022-11-17T22:11:43.302Z,0.40
2022-11-17T22:14:12.529Z,0.68
2022-11-17T22:16:51.923Z,0.73
2022-11-17T22:19:20.930Z,0.43
2022-11-17T22:21:49.526Z,1.08
2022-11-17T22:24:16.751Z,0.70
2022-11-17T22:26:44.440Z,0.60
2022-11-17T22:29:19.668Z,0.65
2022-11-17T22:31:48.580Z,0.70
2022-11-17T22:34:16.036Z,0.60
2022-11-17T22:36:42.617Z,0.60
2022-11-17T22:39:12.473Z,0.43
2022-11-17T22:41:40.160Z,0.70
2022-11-17T22:44:06.920Z,0.50
2022-11-17T22:46:35.043Z,0.45
2022-11-17T22:49:01.563Z,0.68
2022-11-17T22:51:46.652Z,0.57
2022-11-17T22:54:13.256Z,0.88
2022-11-17T22:56:42.722Z,0.50
2022-11-17T22:59:12.056Z,0.47
2022-11-17T23:01:42.781Z,0.52
2022-11-17T23:04:12.779Z,0.60
2022-11-17T23:06:42.912Z,0.63
2022-11-17T23:09:12.868Z,0.60
2022-11-17T23:11:42.368Z,0.60
2022-11-17T23:14:13.878Z,0.65
2022-11-17T23:16:43.590Z,0.70
2022-11-17T23:19:14.185Z,0.82
2022-11-17T23:21:41.430Z,0.50
2022-11-17T23:24:10.664Z,0.52
2022-11-17T23:26:37.218Z,0.80
2022-11-17T23:29:03.763Z,0.60
2022-11-17T23:31:30.397Z,0.47
2022-11-17T23:33:56.928Z,0.60
2022-11-17T23:36:23.545Z,0.75
2022-11-17T23:38:51.234Z,0.40
2022-11-17T23:41:19.892Z,0.60
2022-11-17T23:43:49.286Z,0.45
2022-11-17T23:46:18.723Z,0.60
2022-11-17T23:48:45.840Z,0.68
2022-11-17T23:51:18.452Z,0.70
2022-11-17T23:53:46.689Z,0.73
2022-11-17T23:56:13.896Z,0.77
2022-11-17T23:58:44.760Z,0.60
